sensor_id;sensor_type;location;lat;lon;timestamp;pressure;altitude;pressure_sealevel;temperature;humidity
29239;BME280;16267;48.194;11.546;2023-04-27T00:01:39;96010.44;;;8.60;67.56
29239;BME280;16267;48.194;11.546;2023-04-27T00:04:05;96013.50;;;8.59;67.57
29239;BME280;16267;48.194;11.546;2023-04-27T00:06:31;96011.59;;;8.56;67.37
29239;BME280;16267;48.194;11.546;2023-04-27T00:08:59;96011.25;;;8.54;67.87
29239;BME280;16267;48.194;11.546;2023-04-27T00:11:25;96007.03;;;8.53;67.72
29239;BME280;16267;48.194;11.546;2023-04-27T00:13:51;96005.88;;;8.50;67.88
29239;BME280;16267;48.194;11.546;2023-04-27T00:16:17;96010.88;;;8.48;67.55
29239;BME280;16267;48.194;11.546;2023-04-27T00:18:42;96010.09;;;8.47;68.16
29239;BME280;16267;48.194;11.546;2023-04-27T00:21:09;96013.91;;;8.46;68.15
29239;BME280;16267;48.194;11.546;2023-04-27T00:23:35;96015.09;;;8.45;68.18
29239;BME280;16267;48.194;11.546;2023-04-27T00:26:01;96012.78;;;8.44;68.29
29239;BME280;16267;48.194;11.546;2023-04-27T00:28:27;96003.22;;;8.43;68.58
29239;BME280;16267;48.194;11.546;2023-04-27T00:30:57;95996.34;;;8.42;68.58
29239;BME280;16267;48.194;11.546;2023-04-27T00:33:23;96001.69;;;8.42;68.80
29239;BME280;16267;48.194;11.546;2023-04-27T00:35:48;96004.78;;;8.40;68.70
29239;BME280;16267;48.194;11.546;2023-04-27T00:38:14;95998.25;;;8.38;68.56
29239;BME280;16267;48.194;11.546;2023-04-27T00:40:40;96006.28;;;8.38;68.98
29239;BME280;16267;48.194;11.546;2023-04-27T00:43:06;96001.28;;;8.36;68.89
29239;BME280;16267;48.194;11.546;2023-04-27T00:45:41;95997.84;;;8.36;68.90
29239;BME280;16267;48.194;11.546;2023-04-27T00:48:09;96002.44;;;8.35;69.19
29239;BME280;16267;48.194;11.546;2023-04-27T00:50:35;96000.94;;;8.34;69.05
29239;BME280;16267;48.194;11.546;2023-04-27T00:53:04;95996.72;;;8.33;69.25
29239;BME280;16267;48.194;11.546;2023-04-27T00:55:31;95999.38;;;8.33;69.50
29239;BME280;16267;48.194;11.546;2023-04-27T00:58:36;96001.69;;;8.31;69.02
29239;BME280;16267;48.194;11.546;2023-04-27T01:01:02;95999.78;;;8.32;69.07
29239;BME280;16267;48.194;11.546;2023-04-27T01:03:29;95999.41;;;8.30;69.59
29239;BME280;16267;48.194;11.546;2023-04-27T01:05:55;96003.22;;;8.29;69.94
29239;BME280;16267;48.194;11.546;2023-04-27T01:08:21;95998.25;;;8.27;69.97
29239;BME280;16267;48.194;11.546;2023-04-27T01:10:47;96000.94;;;8.27;69.70
29239;BME280;16267;48.194;11.546;2023-04-27T01:13:14;95997.50;;;8.26;70.01
29239;BME280;16267;48.194;11.546;2023-04-27T01:15:40;96000.53;;;8.25;70.33
29239;BME280;16267;48.194;11.546;2023-04-27T01:18:05;95999.78;;;8.24;70.49
29239;BME280;16267;48.194;11.546;2023-04-27T01:20:31;95994.06;;;8.22;71.20
29239;BME280;16267;48.194;11.546;2023-04-27T01:22:57;96009.34;;;8.22;70.89
29239;BME280;16267;48.194;11.546;2023-04-27T01:25:24;95994.44;;;8.21;70.94
29239;BME280;16267;48.194;11.546;2023-04-27T01:27:50;96002.84;;;8.19;71.47
29239;BME280;16267;48.194;11.546;2023-04-27T01:30:16;95997.91;;;8.18;71.11
29239;BME280;16267;48.194;11.546;2023-04-27T01:32:42;96006.66;;;8.18;71.19
29239;BME280;16267;48.194;11.546;2023-04-27T01:35:08;96004.38;;;8.17;70.97
29239;BME280;16267;48.194;11.546;2023-04-27T01:37:34;96003.59;;;8.16;71.49
29239;BME280;16267;48.194;11.546;2023-04-27T01:40:00;96010.88;;;8.16;70.98
29239;BME280;16267;48.194;11.546;2023-04-27T01:42:26;96004.00;;;8.15;71.13
29239;BME280;16267;48.194;11.546;2023-04-27T01:44:52;96008.56;;;8.14;71.39
29239;BME280;16267;48.194;11.546;2023-04-27T01:47:18;96016.59;;;8.14;71.32
29239;BME280;16267;48.194;11.546;2023-04-27T01:49:44;96013.16;;;8.14;71.11
29239;BME280;16267;48.194;11.546;2023-04-27T01:52:10;96021.19;;;8.14;71.25
29239;BME280;16267;48.194;11.546;2023-04-27T01:54:36;96018.50;;;8.14;71.24
29239;BME280;16267;48.194;11.546;2023-04-27T01:57:01;96017.00;;;8.13;70.82
29239;BME280;16267;48.194;11.546;2023-04-27T01:59:31;96011.63;;;8.13;71.12
29239;BME280;16267;48.194;11.546;2023-04-27T02:01:57;96016.22;;;8.12;70.70
29239;BME280;16267;48.194;11.546;2023-04-27T02:04:23;96016.59;;;8.11;70.73
29239;BME280;16267;48.194;11.546;2023-04-27T02:06:52;96020.44;;;8.10;70.86
29239;BME280;16267;48.194;11.546;2023-04-27T02:09:17;96017.75;;;8.10;70.93
29239;BME280;16267;48.194;11.546;2023-04-27T02:11:43;96024.22;;;8.09;70.72
29239;BME280;16267;48.194;11.546;2023-04-27T02:14:09;96014.69;;;8.08;70.81
29239;BME280;16267;48.194;11.546;2023-04-27T02:16:35;96019.66;;;8.05;71.00
29239;BME280;16267;48.194;11.546;2023-04-27T02:19:01;96015.84;;;8.03;70.85
29239;BME280;16267;48.194;11.546;2023-04-27T02:21:27;96020.03;;;8.00;70.71
29239;BME280;16267;48.194;11.546;2023-04-27T02:23:53;96027.69;;;7.98;71.01
29239;BME280;16267;48.194;11.546;2023-04-27T02:26:20;96026.13;;;7.97;70.95
29239;BME280;16267;48.194;11.546;2023-04-27T02:28:47;96024.22;;;7.94;70.40
29239;BME280;16267;48.194;11.546;2023-04-27T02:31:13;96028.06;;;7.93;71.24
29239;BME280;16267;48.194;11.546;2023-04-27T02:33:40;96025.38;;;7.90;70.75
29239;BME280;16267;48.194;11.546;2023-04-27T02:36:07;96024.25;;;7.87;71.03
29239;BME280;16267;48.194;11.546;2023-04-27T02:38:33;96027.66;;;7.84;70.42
29239;BME280;16267;48.194;11.546;2023-04-27T02:40:59;96019.63;;;7.80;70.74
29239;BME280;16267;48.194;11.546;2023-04-27T02:43:25;96026.50;;;7.74;71.17
29239;BME280;16267;48.194;11.546;2023-04-27T02:45:51;96030.69;;;7.72;71.40
29239;BME280;16267;48.194;11.546;2023-04-27T02:48:17;96029.16;;;7.67;71.10
29239;BME280;16267;48.194;11.546;2023-04-27T02:50:44;96027.66;;;7.63;71.18
29239;BME280;16267;48.194;11.546;2023-04-27T02:53:11;96023.06;;;7.59;71.64
29239;BME280;16267;48.194;11.546;2023-04-27T02:55:37;96029.94;;;7.57;71.58
29239;BME280;16267;48.194;11.546;2023-04-27T02:58:08;96032.59;;;7.57;71.45
29239;BME280;16267;48.194;11.546;2023-04-27T03:00:34;96028.00;;;7.54;71.74
29239;BME280;16267;48.194;11.546;2023-04-27T03:03:00;96027.63;;;7.52;71.45
29239;BME280;16267;48.194;11.546;2023-04-27T03:08:59;96028.34;;;7.45;71.01
29239;BME280;16267;48.194;11.546;2023-04-27T03:11:25;96030.25;;;7.41;71.24
29239;BME280;16267;48.194;11.546;2023-04-27T03:13:50;96026.44;;;7.38;71.56
29239;BME280;16267;48.194;11.546;2023-04-27T03:16:20;96033.28;;;7.32;71.33
29239;BME280;16267;48.194;11.546;2023-04-27T03:18:46;96025.28;;;7.29;71.42
29239;BME280;16267;48.194;11.546;2023-04-27T03:21:13;96039.34;;;7.26;71.60
29239;BME280;16267;48.194;11.546;2023-04-27T03:23:39;96031.75;;;7.21;71.57
29239;BME280;16267;48.194;11.546;2023-04-27T03:26:13;96036.28;;;7.17;71.74
29239;BME280;16267;48.194;11.546;2023-04-27T03:28:39;96043.91;;;7.14;71.98
29239;BME280;16267;48.194;11.546;2023-04-27T03:31:12;96046.91;;;7.09;72.07
29239;BME280;16267;48.194;11.546;2023-04-27T03:33:39;96042.72;;;7.08;72.30
29239;BME280;16267;48.194;11.546;2023-04-27T03:36:06;96051.13;;;7.07;72.06
29239;BME280;16267;48.194;11.546;2023-04-27T03:38:33;96051.50;;;7.05;72.22
29239;BME280;16267;48.194;11.546;2023-04-27T03:41:00;96055.31;;;7.04;71.94
29239;BME280;16267;48.194;11.546;2023-04-27T03:43:26;96049.56;;;7.02;72.03
29239;BME280;16267;48.194;11.546;2023-04-27T03:45:52;96054.91;;;7.02;72.54
29239;BME280;16267;48.194;11.546;2023-04-27T03:48:18;96052.59;;;7.01;72.19
29239;BME280;16267;48.194;11.546;2023-04-27T03:50:45;96057.19;;;7.00;72.00
29239;BME280;16267;48.194;11.546;2023-04-27T03:53:11;96049.56;;;6.99;72.31
29239;BME280;16267;48.194;11.546;2023-04-27T03:55:43;96046.50;;;6.97;72.15
29239;BME280;16267;48.194;11.546;2023-04-27T03:58:09;96053.00;;;6.96;72.73
29239;BME280;16267;48.194;11.546;2023-04-27T04:00:36;96056.03;;;6.94;72.48
29239;BME280;16267;48.194;11.546;2023-04-27T04:03:03;96057.16;;;6.93;72.76
29239;BME280;16267;48.194;11.546;2023-04-27T04:05:30;96069.72;;;6.92;72.76
29239;BME280;16267;48.194;11.546;2023-04-27T04:07:56;96071.22;;;6.90;72.56
29239;BME280;16267;48.194;11.546;2023-04-27T04:10:23;96076.56;;;6.90;72.66
29239;BME280;16267;48.194;11.546;2023-04-27T04:12:49;96075.44;;;6.87;73.30
29239;BME280;16267;48.194;11.546;2023-04-27T04:15:15;96075.44;;;6.87;74.19
29239;BME280;16267;48.194;11.546;2023-04-27T04:17:41;96079.63;;;6.88;74.27
29239;BME280;16267;48.194;11.546;2023-04-27T04:20:07;96083.06;;;6.89;73.85
29239;BME280;16267;48.194;11.546;2023-04-27T04:22:34;96087.63;;;6.88;73.72
29239;BME280;16267;48.194;11.546;2023-04-27T04:25:00;96085.72;;;6.89;74.10
29239;BME280;16267;48.194;11.546;2023-04-27T04:27:25;96089.91;;;6.90;73.53
29239;BME280;16267;48.194;11.546;2023-04-27T04:29:54;96096.78;;;6.91;74.24
29239;BME280;16267;48.194;11.546;2023-04-27T04:32:20;96092.97;;;6.92;74.58
29239;BME280;16267;48.194;11.546;2023-04-27T04:34:50;96093.72;;;6.92;74.83
29239;BME280;16267;48.194;11.546;2023-04-27T04:37:16;96099.84;;;6.93;75.43
29239;BME280;16267;48.194;11.546;2023-04-27T04:39:45;96097.94;;;6.93;76.52
29239;BME280;16267;48.194;11.546;2023-04-27T04:42:10;96095.28;;;6.93;77.43
29239;BME280;16267;48.194;11.546;2023-04-27T04:44:37;96096.03;;;6.94;77.12
29239;BME280;16267;48.194;11.546;2023-04-27T04:47:03;96105.56;;;6.95;77.33
29239;BME280;16267;48.194;11.546;2023-04-27T04:49:29;96093.00;;;6.96;77.27
29239;BME280;16267;48.194;11.546;2023-04-27T04:51:55;96096.06;;;6.98;76.75
29239;BME280;16267;48.194;11.546;2023-04-27T04:54:21;96102.94;;;6.99;76.39
29239;BME280;16267;48.194;11.546;2023-04-27T04:56:47;96105.63;;;7.02;75.95
29239;BME280;16267;48.194;11.546;2023-04-27T04:59:12;96114.03;;;7.04;76.17
29239;BME280;16267;48.194;11.546;2023-04-27T05:01:38;96120.53;;;7.07;76.30
29239;BME280;16267;48.194;11.546;2023-04-27T05:04:04;96115.56;;;7.09;76.28
29239;BME280;16267;48.194;11.546;2023-04-27T05:06:30;96115.59;;;7.12;76.42
29239;BME280;16267;48.194;11.546;2023-04-27T05:08:56;96119.44;;;7.15;76.21
29239;BME280;16267;48.194;11.546;2023-04-27T05:11:22;96111.78;;;7.17;76.09
29239;BME280;16267;48.194;11.546;2023-04-27T05:13:48;96121.34;;;7.22;76.08
29239;BME280;16267;48.194;11.546;2023-04-27T05:16:13;96112.59;;;7.25;76.16
29239;BME280;16267;48.194;11.546;2023-04-27T05:18:39;96117.94;;;7.28;76.26
29239;BME280;16267;48.194;11.546;2023-04-27T05:21:13;96116.81;;;7.33;77.07
29239;BME280;16267;48.194;11.546;2023-04-27T05:23:39;96120.66;;;7.39;76.98
29239;BME280;16267;48.194;11.546;2023-04-27T05:26:13;96116.09;;;7.43;77.80
29239;BME280;16267;48.194;11.546;2023-04-27T05:28:38;96112.28;;;7.48;78.76
29239;BME280;16267;48.194;11.546;2023-04-27T05:31:04;96105.06;;;7.52;78.64
29239;BME280;16267;48.194;11.546;2023-04-27T05:33:31;96104.72;;;7.57;78.36
29239;BME280;16267;48.194;11.546;2023-04-27T05:35:56;96099.00;;;7.62;78.16
29239;BME280;16267;48.194;11.546;2023-04-27T05:38:22;96111.63;;;7.69;78.39
29239;BME280;16267;48.194;11.546;2023-04-27T05:40:54;96114.69;;;7.74;78.53
29239;BME280;16267;48.194;11.546;2023-04-27T05:43:21;96125.41;;;7.81;79.60
29239;BME280;16267;48.194;11.546;2023-04-27T05:45:46;96121.22;;;7.88;80.44
29239;BME280;16267;48.194;11.546;2023-04-27T05:48:12;96135.72;;;7.94;81.01
29239;BME280;16267;48.194;11.546;2023-04-27T05:50:39;96135.72;;;7.97;81.00
29239;BME280;16267;48.194;11.546;2023-04-27T05:53:05;96139.53;;;8.03;81.55
29239;BME280;16267;48.194;11.546;2023-04-27T05:55:31;96134.59;;;8.05;80.71
29239;BME280;16267;48.194;11.546;2023-04-27T05:57:58;96135.38;;;8.10;80.72
29239;BME280;16267;48.194;11.546;2023-04-27T06:00:23;96128.88;;;8.14;80.85
29239;BME280;16267;48.194;11.546;2023-04-27T06:02:49;96130.81;;;8.21;81.24
29239;BME280;16267;48.194;11.546;2023-04-27T06:05:16;96121.25;;;8.27;80.79
29239;BME280;16267;48.194;11.546;2023-04-27T06:07:41;96129.31;;;8.34;80.84
29239;BME280;16267;48.194;11.546;2023-04-27T06:10:09;96128.16;;;8.42;80.94
29239;BME280;16267;48.194;11.546;2023-04-27T06:12:36;96128.16;;;8.49;80.37
29239;BME280;16267;48.194;11.546;2023-04-27T06:15:05;96120.16;;;8.57;80.17
29239;BME280;16267;48.194;11.546;2023-04-27T06:17:38;96124.72;;;8.63;77.40
29239;BME280;16267;48.194;11.546;2023-04-27T06:20:05;96126.25;;;8.71;76.47
29239;BME280;16267;48.194;11.546;2023-04-27T06:22:34;96133.13;;;8.80;75.57
29239;BME280;16267;48.194;11.546;2023-04-27T06:25:02;96132.75;;;8.85;74.77
29239;BME280;16267;48.194;11.546;2023-04-27T06:27:28;96134.25;;;8.93;74.69
29239;BME280;16267;48.194;11.546;2023-04-27T06:29:53;96133.09;;;9.01;74.39
29239;BME280;16267;48.194;11.546;2023-04-27T06:32:19;96138.06;;;9.06;73.09
29239;BME280;16267;48.194;11.546;2023-04-27T06:34:46;96134.22;;;9.14;73.62
29239;BME280;16267;48.194;11.546;2023-04-27T06:37:12;96138.03;;;9.17;70.56
29239;BME280;16267;48.194;11.546;2023-04-27T06:39:39;96136.88;;;9.18;70.91
29239;BME280;16267;48.194;11.546;2023-04-27T06:42:05;96142.59;;;9.27;71.39
29239;BME280;16267;48.194;11.546;2023-04-27T06:44:31;96144.09;;;9.35;70.43
29239;BME280;16267;48.194;11.546;2023-04-27T06:46:57;96133.38;;;9.43;69.01
29239;BME280;16267;48.194;11.546;2023-04-27T06:49:23;96136.41;;;9.48;67.73
29239;BME280;16267;48.194;11.546;2023-04-27T06:51:49;96145.56;;;9.54;67.29
29239;BME280;16267;48.194;11.546;2023-04-27T06:54:15;96142.50;;;9.59;65.08
29239;BME280;16267;48.194;11.546;2023-04-27T06:56:41;96137.88;;;9.67;63.92
29239;BME280;16267;48.194;11.546;2023-04-27T06:59:07;96126.34;;;9.74;64.51
29239;BME280;16267;48.194;11.546;2023-04-27T07:01:33;96145.84;;;9.81;64.88
29239;BME280;16267;48.194;11.546;2023-04-27T07:03:59;96143.50;;;9.87;64.59
29239;BME280;16267;48.194;11.546;2023-04-27T07:06:25;96148.06;;;9.94;63.70
29239;BME280;16267;48.194;11.546;2023-04-27T07:08:51;96140.75;;;10.01;64.16
29239;BME280;16267;48.194;11.546;2023-04-27T07:11:17;96146.06;;;10.09;63.99
29239;BME280;16267;48.194;11.546;2023-04-27T07:13:42;96146.44;;;10.14;63.35
29239;BME280;16267;48.194;11.546;2023-04-27T07:16:08;96142.56;;;10.19;63.05
29239;BME280;16267;48.194;11.546;2023-04-27T07:18:34;96146.75;;;10.27;63.64
29239;BME280;16267;48.194;11.546;2023-04-27T07:21:00;96156.28;;;10.35;63.17
29239;BME280;16267;48.194;11.546;2023-04-27T07:23:25;96149.31;;;10.41;61.82
29239;BME280;16267;48.194;11.546;2023-04-27T07:25:51;96142.78;;;10.46;59.57
29239;BME280;16267;48.194;11.546;2023-04-27T07:28:18;96148.13;;;10.53;60.41
29239;BME280;16267;48.194;11.546;2023-04-27T07:30:44;96142.72;;;10.57;59.73
29239;BME280;16267;48.194;11.546;2023-04-27T07:33:10;96145.78;;;10.59;59.68
29239;BME280;16267;48.194;11.546;2023-04-27T07:35:38;96143.44;;;10.61;57.96
29239;BME280;16267;48.194;11.546;2023-04-27T07:38:04;96138.38;;;10.70;58.73
29239;BME280;16267;48.194;11.546;2023-04-27T07:40:30;96141.38;;;10.79;58.33
29239;BME280;16267;48.194;11.546;2023-04-27T07:42:57;96146.66;;;10.90;58.89
29239;BME280;16267;48.194;11.546;2023-04-27T07:45:23;96141.56;;;10.99;58.25
29239;BME280;16267;48.194;11.546;2023-04-27T07:47:59;96137.25;;;11.09;56.59
29239;BME280;16267;48.194;11.546;2023-04-27T07:50:28;96144.88;;;11.14;55.00
29239;BME280;16267;48.194;11.546;2023-04-27T07:52:54;96140.50;;;11.27;56.15
29239;BME280;16267;48.194;11.546;2023-04-27T07:55:21;96134.22;;;11.41;56.01
29239;BME280;16267;48.194;11.546;2023-04-27T07:57:52;96144.09;;;11.51;55.65
29239;BME280;16267;48.194;11.546;2023-04-27T08:00:18;96143.56;;;11.64;54.91
29239;BME280;16267;48.194;11.546;2023-04-27T08:02:45;96147.66;;;11.75;55.81
29239;BME280;16267;48.194;11.546;2023-04-27T08:05:11;96152.94;;;11.82;54.57
29239;BME280;16267;48.194;11.546;2023-04-27T08:07:37;96155.56;;;11.90;53.90
29239;BME280;16267;48.194;11.546;2023-04-27T08:10:03;96151.56;;;12.01;53.77
29239;BME280;16267;48.194;11.546;2023-04-27T08:12:29;96148.75;;;12.12;53.74
29239;BME280;16267;48.194;11.546;2023-04-27T08:14:54;96145.97;;;12.19;54.04
29239;BME280;16267;48.194;11.546;2023-04-27T08:17:20;96149.75;;;12.22;50.79
29239;BME280;16267;48.194;11.546;2023-04-27T08:19:46;96151.94;;;12.31;52.58
29239;BME280;16267;48.194;11.546;2023-04-27T08:22:12;96155.28;;;12.38;51.83
29239;BME280;16267;48.194;11.546;2023-04-27T08:24:38;96158.31;;;12.40;51.08
29239;BME280;16267;48.194;11.546;2023-04-27T08:27:05;96158.56;;;12.49;51.50
29239;BME280;16267;48.194;11.546;2023-04-27T08:29:31;96160.34;;;12.60;52.65
29239;BME280;16267;48.194;11.546;2023-04-27T08:32:00;96157.19;;;12.65;50.73
29239;BME280;16267;48.194;11.546;2023-04-27T08:34:27;96164.38;;;12.48;49.94
29239;BME280;16267;48.194;11.546;2023-04-27T08:36:53;96154.59;;;12.58;51.81
29239;BME280;16267;48.194;11.546;2023-04-27T08:39:20;96164.06;;;12.69;51.10
29239;BME280;16267;48.194;11.546;2023-04-27T08:41:46;96155.44;;;12.78;50.80
29239;BME280;16267;48.194;11.546;2023-04-27T08:44:11;96154.44;;;12.92;51.99
29239;BME280;16267;48.194;11.546;2023-04-27T08:46:38;96158.47;;;13.04;51.75
29239;BME280;16267;48.194;11.546;2023-04-27T08:49:04;96151.03;;;13.11;51.67
29239;BME280;16267;48.194;11.546;2023-04-27T08:51:31;96161.34;;;13.16;51.72
29239;BME280;16267;48.194;11.546;2023-04-27T08:53:58;96158.09;;;13.25;51.57
29239;BME280;16267;48.194;11.546;2023-04-27T08:56:26;96148.91;;;13.23;49.63
29239;BME280;16267;48.194;11.546;2023-04-27T08:58:54;96155.38;;;13.29;50.21
29239;BME280;16267;48.194;11.546;2023-04-27T09:01:21;96146.88;;;13.30;50.17
29239;BME280;16267;48.194;11.546;2023-04-27T09:03:53;96149.03;;;13.39;50.72
29239;BME280;16267;48.194;11.546;2023-04-27T09:06:33;96143.28;;;13.57;50.75
29239;BME280;16267;48.194;11.546;2023-04-27T09:08:59;96139.13;;;13.72;50.97
29239;BME280;16267;48.194;11.546;2023-04-27T09:11:30;96144.72;;;13.81;51.09
29239;BME280;16267;48.194;11.546;2023-04-27T09:13:58;96140.56;;;13.97;50.23
29239;BME280;16267;48.194;11.546;2023-04-27T09:16:27;96135.00;;;14.04;49.61
29239;BME280;16267;48.194;11.546;2023-04-27T09:18:55;96144.63;;;14.05;48.79
29239;BME280;16267;48.194;11.546;2023-04-27T09:21:27;96138.19;;;13.99;48.26
29239;BME280;16267;48.194;11.546;2023-04-27T09:23:54;96146.97;;;14.03;47.81
29239;BME280;16267;48.194;11.546;2023-04-27T09:26:24;96139.22;;;14.05;48.15
29239;BME280;16267;48.194;11.546;2023-04-27T09:28:53;96132.91;;;14.12;47.67
29239;BME280;16267;48.194;11.546;2023-04-27T09:31:21;96131.91;;;14.22;48.30
29239;BME280;16267;48.194;11.546;2023-04-27T09:33:54;96129.28;;;14.35;47.22
29239;BME280;16267;48.194;11.546;2023-04-27T09:36:20;96126.22;;;14.53;48.55
29239;BME280;16267;48.194;11.546;2023-04-27T09:38:47;96131.38;;;14.63;48.45
29239;BME280;16267;48.194;11.546;2023-04-27T09:41:13;96126.38;;;14.62;47.59
29239;BME280;16267;48.194;11.546;2023-04-27T09:43:42;96119.88;;;14.59;46.34
29239;BME280;16267;48.194;11.546;2023-04-27T09:46:14;96124.78;;;14.64;46.09
29239;BME280;16267;48.194;11.546;2023-04-27T09:48:41;96114.38;;;14.79;47.63
29239;BME280;16267;48.194;11.546;2023-04-27T09:51:07;96125.00;;;14.37;45.22
29239;BME280;16267;48.194;11.546;2023-04-27T09:53:40;96114.47;;;14.59;45.73
29239;BME280;16267;48.194;11.546;2023-04-27T10:01:50;96105.66;;;15.33;47.22
29239;BME280;16267;48.194;11.546;2023-04-27T10:07:05;96102.31;;;15.42;45.83
29239;BME280;16267;48.194;11.546;2023-04-27T10:09:49;96103.59;;;15.37;45.39
29239;BME280;16267;48.194;11.546;2023-04-27T10:12:41;96096.25;;;15.38;45.61
29239;BME280;16267;48.194;11.546;2023-04-27T10:15:15;96099.78;;;15.35;45.22
29239;BME280;16267;48.194;11.546;2023-04-27T10:17:49;96100.66;;;15.32;45.68
29239;BME280;16267;48.194;11.546;2023-04-27T10:20:16;96097.72;;;15.26;44.45
29239;BME280;16267;48.194;11.546;2023-04-27T10:22:46;96088.22;;;15.34;46.01
29239;BME280;16267;48.194;11.546;2023-04-27T10:25:21;96088.91;;;15.38;46.35
29239;BME280;16267;48.194;11.546;2023-04-27T10:28:01;96092.81;;;15.50;46.53
29239;BME280;16267;48.194;11.546;2023-04-27T10:30:38;96086.66;;;15.62;46.96
29239;BME280;16267;48.194;11.546;2023-04-27T10:33:09;96083.88;;;15.66;46.14
29239;BME280;16267;48.194;11.546;2023-04-27T10:38:17;96092.25;;;15.84;45.54
29239;BME280;16267;48.194;11.546;2023-04-27T10:40:52;96092.91;;;15.89;44.39
29239;BME280;16267;48.194;11.546;2023-04-27T10:43:25;96086.63;;;15.92;44.56
29239;BME280;16267;48.194;11.546;2023-04-27T10:45:52;96080.22;;;15.98;44.38
29239;BME280;16267;48.194;11.546;2023-04-27T10:48:18;96084.13;;;15.97;44.23
29239;BME280;16267;48.194;11.546;2023-04-27T10:50:44;96086.84;;;15.97;43.60
29239;BME280;16267;48.194;11.546;2023-04-27T10:53:11;96086.63;;;15.92;43.42
29239;BME280;16267;48.194;11.546;2023-04-27T10:55:37;96092.38;;;15.94;43.48
29239;BME280;16267;48.194;11.546;2023-04-27T10:58:03;96081.97;;;16.05;44.13
29239;BME280;16267;48.194;11.546;2023-04-27T11:00:36;96076.03;;;16.10;43.82
29239;BME280;16267;48.194;11.546;2023-04-27T11:03:18;96079.38;;;16.27;43.65
29239;BME280;16267;48.194;11.546;2023-04-27T11:05:47;96080.53;;;16.39;44.32
29239;BME280;16267;48.194;11.546;2023-04-27T11:08:16;96075.75;;;16.43;44.14
29239;BME280;16267;48.194;11.546;2023-04-27T11:10:47;96069.91;;;16.44;43.75
29239;BME280;16267;48.194;11.546;2023-04-27T11:13:21;96080.75;;;16.44;43.92
29239;BME280;16267;48.194;11.546;2023-04-27T11:15:57;96077.72;;;16.42;42.50
29239;BME280;16267;48.194;11.546;2023-04-27T11:18:29;96079.53;;;16.45;42.07
29239;BME280;16267;48.194;11.546;2023-04-27T11:21:14;96087.69;;;16.45;43.61
29239;BME280;16267;48.194;11.546;2023-04-27T11:23:41;96078.88;;;16.54;43.62
29239;BME280;16267;48.194;11.546;2023-04-27T11:26:19;96080.38;;;16.68;43.75
29239;BME280;16267;48.194;11.546;2023-04-27T11:29:09;96083.28;;;16.73;43.05
29239;BME280;16267;48.194;11.546;2023-04-27T11:31:42;96068.09;;;16.76;42.54
29239;BME280;16267;48.194;11.546;2023-04-27T11:34:21;96073.00;;;16.81;43.07
29239;BME280;16267;48.194;11.546;2023-04-27T11:37:02;96077.63;;;16.93;43.00
29239;BME280;16267;48.194;11.546;2023-04-27T11:39:35;96088.53;;;17.03;42.47
29239;BME280;16267;48.194;11.546;2023-04-27T11:42:24;96085.78;;;17.15;42.95
29239;BME280;16267;48.194;11.546;2023-04-27T11:45:05;96080.38;;;17.15;40.39
29239;BME280;16267;48.194;11.546;2023-04-27T11:47:32;96082.63;;;17.17;41.21
29239;BME280;16267;48.194;11.546;2023-04-27T11:50:03;96087.66;;;17.06;39.89
29239;BME280;16267;48.194;11.546;2023-04-27T11:52:35;96084.19;;;17.05;41.60
29239;BME280;16267;48.194;11.546;2023-04-27T11:55:03;96087.88;;;16.99;40.70
29239;BME280;16267;48.194;11.546;2023-04-27T11:57:34;96092.31;;;17.05;41.27
29239;BME280;16267;48.194;11.546;2023-04-27T12:00:03;96097.28;;;17.07;40.69
29239;BME280;16267;48.194;11.546;2023-04-27T12:02:36;96095.44;;;17.16;42.19
29239;BME280;16267;48.194;11.546;2023-04-27T12:05:03;96081.03;;;17.29;41.89
29239;BME280;16267;48.194;11.546;2023-04-27T12:07:29;96084.22;;;17.27;42.10
29239;BME280;16267;48.194;11.546;2023-04-27T12:09:55;96090.06;;;17.26;41.47
29239;BME280;16267;48.194;11.546;2023-04-27T12:12:21;96080.63;;;17.30;41.95
29239;BME280;16267;48.194;11.546;2023-04-27T12:14:49;96085.16;;;17.33;41.96
29239;BME280;16267;48.194;11.546;2023-04-27T12:17:15;96084.06;;;17.31;41.24
29239;BME280;16267;48.194;11.546;2023-04-27T12:19:41;96079.84;;;17.30;41.83
29239;BME280;16267;48.194;11.546;2023-04-27T12:22:07;96087.34;;;17.26;41.61
29239;BME280;16267;48.194;11.546;2023-04-27T12:24:33;96082.88;;;17.32;41.40
29239;BME280;16267;48.194;11.546;2023-04-27T12:26:59;96077.94;;;17.39;41.72
29239;BME280;16267;48.194;11.546;2023-04-27T12:29:25;96086.59;;;17.47;40.77
29239;BME280;16267;48.194;11.546;2023-04-27T12:31:51;96085.28;;;17.52;41.17
29239;BME280;16267;48.194;11.546;2023-04-27T12:34:17;96075.41;;;17.45;40.30
29239;BME280;16267;48.194;11.546;2023-04-27T12:36:43;96069.94;;;17.58;41.27
29239;BME280;16267;48.194;11.546;2023-04-27T12:39:18;96073.00;;;17.69;41.12
29239;BME280;16267;48.194;11.546;2023-04-27T12:41:46;96073.81;;;17.79;41.15
29239;BME280;16267;48.194;11.546;2023-04-27T12:44:13;96079.31;;;17.88;42.22
29239;BME280;16267;48.194;11.546;2023-04-27T12:46:40;96072.50;;;17.83;40.20
29239;BME280;16267;48.194;11.546;2023-04-27T12:49:08;96074.97;;;17.91;41.57
29239;BME280;16267;48.194;11.546;2023-04-27T12:51:35;96082.31;;;17.90;40.92
29239;BME280;16267;48.194;11.546;2023-04-27T12:54:05;96072.50;;;17.83;40.82
29239;BME280;16267;48.194;11.546;2023-04-27T12:56:32;96071.78;;;17.92;40.49
29239;BME280;16267;48.194;11.546;2023-04-27T12:58:58;96070.44;;;17.97;42.03
29239;BME280;16267;48.194;11.546;2023-04-27T13:01:27;96066.69;;;18.03;41.37
29239;BME280;16267;48.194;11.546;2023-04-27T13:03:54;96061.56;;;18.05;41.54
29239;BME280;16267;48.194;11.546;2023-04-27T13:06:21;96061.91;;;18.08;41.26
29239;BME280;16267;48.194;11.546;2023-04-27T13:08:48;96064.94;;;18.10;41.22
29239;BME280;16267;48.194;11.546;2023-04-27T13:11:14;96054.31;;;18.02;41.07
29239;BME280;16267;48.194;11.546;2023-04-27T13:13:41;96058.44;;;18.07;41.02